Time;durP1;ratioP1;P1;durP2;ratioP2;P2;SDS_P1;SDS_P2;PMS_P1;PMS_P2;Temp;Humidity;BMP_temperature;BMP_pressure;BME280_temperature;BME280_humidity;BME280_pressure;Samples;Min_cycle;Max_cycle;Signal;HPM_P1;HPM_P2
2022/06/07 00:00:20;;;;;;;1.30;1.20;;;19.30;99.90;;;;;;1042992;28;20038;-66
2022/06/07 00:00:50;;;;;;;3.13;2.00;;;19.30;99.90;;;;;;1042589;28;20094;-68
2022/06/07 00:01:21;;;;;;;2.33;2.00;;;19.40;99.90;;;;;;1042607;28;20021;-67
2022/06/07 00:01:51;;;;;;;1.60;1.40;;;19.30;99.90;;;;;;1042731;28;20742;-68
2022/06/07 00:02:28;;;;;;;1.43;1.10;;;19.40;99.90;;;;;;1042411;28;20141;-67
2022/06/07 00:02:59;;;;;;;1.55;1.45;;;19.40;99.90;;;;;;1043226;28;20072;-66
2022/06/07 00:03:30;;;;;;;2.30;1.70;;;19.40;99.90;;;;;;1042916;28;20069;-67
2022/06/07 00:04:01;;;;;;;1.73;1.63;;;19.40;99.90;;;;;;1043173;28;20035;-67
2022/06/07 00:04:33;;;;;;;1.80;1.65;;;19.40;99.90;;;;;;1042639;28;20020;-67
2022/06/07 00:05:04;;;;;;;2.15;1.55;;;19.40;99.90;;;;;;1043098;28;20489;-67
2022/06/07 00:05:35;;;;;;;2.60;2.33;;;19.40;99.90;;;;;;1042820;28;23133;-67
2022/06/07 00:06:06;;;;;;;2.70;1.63;;;19.40;99.90;;;;;;1043083;28;20627;-67
2022/06/07 00:06:36;;;;;;;1.90;1.77;;;19.40;99.90;;;;;;1042794;28;20028;-68
2022/06/07 00:07:09;;;;;;;2.53;2.00;;;19.40;99.90;;;;;;1043226;28;20115;-67
2022/06/07 00:07:39;;;;;;;2.28;1.73;;;19.40;99.90;;;;;;1042146;28;20029;-67
2022/06/07 00:08:12;;;;;;;2.53;1.50;;;19.40;99.90;;;;;;1042751;28;20032;-67
2022/06/07 00:08:43;;;;;;;1.60;1.50;;;19.40;99.90;;;;;;1042397;28;20079;-67
2022/06/07 00:09:13;;;;;;;1.80;1.23;;;19.40;99.90;;;;;;1042750;28;20104;-67
2022/06/07 00:09:44;;;;;;;3.07;2.40;;;19.40;99.90;;;;;;1041568;28;20856;-67
2022/06/07 00:10:15;;;;;;;1.90;1.70;;;19.40;99.90;;;;;;1039168;28;20033;-67
2022/06/07 00:10:46;;;;;;;2.25;1.85;;;19.40;99.90;;;;;;1038553;28;20519;-67
2022/06/07 00:11:18;;;;;;;2.33;2.13;;;19.40;99.90;;;;;;1042612;28;20441;-67
2022/06/07 00:11:48;;;;;;;4.30;2.28;;;19.40;99.90;;;;;;1042732;28;20117;-68
2022/06/07 00:12:20;;;;;;;2.13;1.90;;;19.40;99.90;;;;;;1043130;28;20096;-67
2022/06/07 00:12:51;;;;;;;2.67;2.05;;;19.40;99.90;;;;;;1042178;28;20417;-66
2022/06/07 00:13:21;;;;;;;1.80;1.65;;;19.40;99.90;;;;;;1042889;28;20791;-68
2022/06/07 00:13:52;;;;;;;2.30;1.57;;;19.40;99.90;;;;;;1042221;28;20588;-67
2022/06/07 00:14:24;;;;;;;3.20;2.20;;;19.40;99.90;;;;;;1042873;28;20744;-67
2022/06/07 00:14:55;;;;;;;2.90;2.22;;;19.40;99.90;;;;;;1042701;28;20025;-67
2022/06/07 00:15:26;;;;;;;1.50;1.30;;;19.40;99.90;;;;;;1043393;28;20369;-68
2022/06/07 00:15:57;;;;;;;2.60;1.70;;;19.40;99.90;;;;;;1042660;28;20017;-67
2022/06/07 00:16:28;;;;;;;2.28;1.70;;;19.40;99.90;;;;;;1043089;28;20028;-67
2022/06/07 00:16:58;;;;;;;2.80;2.27;;;19.40;99.90;;;;;;1042864;28;20021;-68
2022/06/07 00:17:29;;;;;;;1.47;1.23;;;19.40;99.90;;;;;;1043238;28;20039;-68
2022/06/07 00:17:59;;;;;;;3.53;2.23;;;19.40;99.90;;;;;;1042071;28;20029;-68
2022/06/07 00:18:30;;;;;;;1.67;1.30;;;19.40;99.90;;;;;;1042829;28;20024;-68
2022/06/07 00:19:00;;;;;;;1.87;1.37;;;19.40;99.90;;;;;;1042386;28;20048;-68
2022/06/07 00:19:32;;;;;;;1.90;1.80;;;19.40;99.90;;;;;;1042644;28;20028;-68
2022/06/07 00:20:05;;;;;;;2.15;1.95;;;19.40;99.90;;;;;;1042395;28;20044;-67
2022/06/07 00:20:36;;;;;;;2.03;1.83;;;19.40;99.90;;;;;;1042786;28;20503;-68
2022/06/07 00:21:07;;;;;;;2.92;2.25;;;19.40;99.90;;;;;;1042097;28;20151;-68
2022/06/07 00:21:37;;;;;;;4.83;2.50;;;19.40;99.90;;;;;;1042906;28;20116;-67
2022/06/07 00:22:09;;;;;;;2.57;1.93;;;19.40;99.90;;;;;;1042333;28;20031;-68
2022/06/07 00:22:41;;;;;;;3.30;1.52;;;19.40;99.90;;;;;;1042700;28;20130;-68
2022/06/07 00:23:14;;;;;;;2.45;1.85;;;19.40;99.90;;;;;;1042201;28;20104;-67
2022/06/07 00:23:45;;;;;;;2.13;1.92;;;19.40;99.90;;;;;;1042529;28;20549;-67
2022/06/07 00:24:16;;;;;;;2.27;1.60;;;19.30;99.90;;;;;;1042495;28;20526;-67
2022/06/07 00:24:46;;;;;;;1.97;1.77;;;19.40;99.90;;;;;;1042530;28;20021;-68
2022/06/07 00:25:17;;;;;;;1.60;1.33;;;19.30;99.90;;;;;;1035422;28;20029;-67
2022/06/07 00:25:53;;;;;;;4.97;2.70;;;19.40;99.90;;;;;;1038466;28;20025;-67
2022/06/07 00:26:24;;;;;;;2.25;2.05;;;19.40;99.90;;;;;;1036165;28;21003;-67
2022/06/07 00:26:55;;;;;;;2.50;2.30;;;19.30;99.90;;;;;;1039544;28;20342;-67
2022/06/07 00:27:26;;;;;;;4.27;2.53;;;19.30;99.90;;;;;;1042441;28;20412;-68
2022/06/07 00:27:57;;;;;;;2.83;2.20;;;19.30;99.90;;;;;;1041916;28;20025;-67
2022/06/07 00:28:29;;;;;;;2.33;1.60;;;19.30;99.90;;;;;;1038304;28;20029;-67
2022/06/07 00:29:00;;;;;;;1.75;1.65;;;19.30;99.90;;;;;;1038913;28;20021;-67
2022/06/07 00:29:31;;;;;;;2.85;2.25;;;19.30;99.90;;;;;;1038853;28;20025;-67
2022/06/07 00:30:03;;;;;;;2.03;1.83;;;19.30;99.90;;;;;;1040415;28;20119;-68
2022/06/07 00:30:34;;;;;;;2.28;2.08;;;19.30;99.90;;;;;;1038850;28;20042;-67
2022/06/07 00:31:05;;;;;;;2.45;2.13;;;19.30;99.90;;;;;;1038924;28;20048;-67
2022/06/07 00:31:40;;;;;;;1.40;1.20;;;19.30;99.90;;;;;;1041478;28;20013;-67
2022/06/07 00:32:12;;;;;;;1.10;1.00;;;19.30;99.90;;;;;;1042683;28;20012;-67
2022/06/07 00:32:44;;;;;;;2.13;1.30;;;19.30;99.90;;;;;;1042431;28;20013;-67
2022/06/07 00:33:14;;;;;;;2.30;2.10;;;19.30;99.90;;;;;;1042603;28;20091;-67
2022/06/07 00:33:45;;;;;;;2.80;1.60;;;19.30;99.90;;;;;;1042254;28;20557;-67
2022/06/07 00:34:16;;;;;;;3.33;2.10;;;19.30;99.90;;;;;;1042699;28;20009;-67
2022/06/07 00:34:47;;;;;;;2.80;2.37;;;19.40;99.90;;;;;;1037773;28;20017;-66
2022/06/07 00:35:18;;;;;;;2.95;2.20;;;19.30;99.90;;;;;;1038709;28;20017;-67
2022/06/07 00:35:48;;;;;;;2.70;2.37;;;19.30;99.90;;;;;;1038147;28;20083;-67
2022/06/07 00:36:19;;;;;;;2.90;2.60;;;19.30;99.90;;;;;;1042743;28;20017;-66
2022/06/07 00:36:50;;;;;;;2.70;2.30;;;19.30;99.90;;;;;;1042448;28;20040;-66
2022/06/07 00:37:20;;;;;;;2.33;2.13;;;19.30;99.90;;;;;;1039046;28;20079;-66
2022/06/07 00:37:51;;;;;;;2.87;2.50;;;19.30;99.90;;;;;;1038641;28;20036;-67
2022/06/07 00:38:21;;;;;;;3.93;2.90;;;19.30;99.90;;;;;;1038571;28;20024;-67
2022/06/07 00:38:52;;;;;;;2.60;2.10;;;19.30;99.90;;;;;;1041023;28;20433;-67
2022/06/07 00:39:23;;;;;;;2.33;1.87;;;19.30;99.90;;;;;;1042628;28;20009;-67
2022/06/07 00:39:53;;;;;;;2.30;2.10;;;19.30;99.90;;;;;;1042460;28;20016;-67
2022/06/07 00:40:24;;;;;;;4.27;3.37;;;19.30;99.90;;;;;;1042604;28;20024;-67
2022/06/07 00:40:54;;;;;;;2.43;2.00;;;19.30;99.90;;;;;;1042722;28;20322;-67
2022/06/07 00:41:25;;;;;;;2.97;2.60;;;19.30;99.90;;;;;;1042541;28;20008;-67
2022/06/07 00:41:56;;;;;;;2.17;1.97;;;19.30;99.90;;;;;;1042432;28;20009;-67
2022/06/07 00:42:26;;;;;;;3.10;2.80;;;19.30;99.90;;;;;;1042393;28;20535;-68
2022/06/07 00:42:57;;;;;;;3.07;2.30;;;19.30;99.90;;;;;;1040471;28;20503;-67
2022/06/07 00:43:28;;;;;;;3.70;2.90;;;19.30;99.90;;;;;;1038445;28;20307;-67
2022/06/07 00:44:17;;;;;;;3.37;1.90;;;19.30;99.90;;;;;;1041178;28;20448;-68
2022/06/07 00:44:48;;;;;;;2.30;1.70;;;19.40;99.90;;;;;;1042836;28;20021;-68
2022/06/07 00:45:23;;;;;;;2.07;1.70;;;19.40;99.90;;;;;;1042746;28;20135;-67
2022/06/07 00:45:53;;;;;;;1.70;1.35;;;19.40;99.90;;;;;;1038869;28;20052;-68
2022/06/07 00:46:24;;;;;;;2.43;2.23;;;19.40;99.90;;;;;;1038652;28;20020;-67
2022/06/07 00:47:11;;;;;;;2.43;1.40;;;19.40;99.90;;;;;;1038693;28;20020;-68
2022/06/07 00:47:42;;;;;;;2.28;1.80;;;19.40;99.90;;;;;;1038715;28;20048;-67
2022/06/07 00:48:13;;;;;;;2.65;1.77;;;19.50;99.90;;;;;;1038915;28;20006;-68
2022/06/07 00:48:45;;;;;;;2.10;1.87;;;19.40;99.90;;;;;;1038551;28;20044;-69
2022/06/07 00:49:17;;;;;;;2.22;2.05;;;19.50;99.90;;;;;;1039033;28;20476;-68
2022/06/07 00:49:52;;;;;;;1.25;1.02;;;19.40;99.90;;;;;;1038368;28;20067;-67
2022/06/07 00:50:28;;;;;;;2.85;2.55;;;19.50;99.90;;;;;;1038246;28;20021;-68
2022/06/07 00:51:05;;;;;;;4.25;2.35;;;19.50;99.90;;;;;;1038484;28;20021;-68
2022/06/07 00:51:36;;;;;;;2.50;2.30;;;19.50;99.90;;;;;;1038427;28;20025;-68
2022/06/07 00:52:07;;;;;;;2.33;1.70;;;19.50;99.90;;;;;;1038661;28;20100;-68
2022/06/07 00:52:38;;;;;;;3.17;2.90;;;19.50;99.90;;;;;;1042574;28;20115;-68
2022/06/07 00:53:21;;;;;;;3.30;2.17;;;19.40;99.90;;;;;;1042976;28;20027;-68
2022/06/07 00:53:51;;;;;;;2.75;2.45;;;19.50;99.90;;;;;;1042623;28;20021;-67
2022/06/07 00:54:28;;;;;;;4.33;3.00;;;19.40;99.90;;;;;;1040508;28;20100;-68
2022/06/07 00:54:59;;;;;;;3.08;2.78;;;19.40;99.90;;;;;;1042650;28;20372;-68
2022/06/07 00:55:30;;;;;;;2.87;2.27;;;19.40;99.90;;;;;;1042956;28;20468;-67
2022/06/07 00:56:03;;;;;;;2.15;1.92;;;19.40;99.90;;;;;;1042587;28;20413;-67
2022/06/07 00:56:33;;;;;;;2.72;2.38;;;19.40;99.90;;;;;;1043049;28;20114;-67
2022/06/07 00:57:05;;;;;;;2.23;2.03;;;19.40;99.90;;;;;;1042778;28;20029;-67
2022/06/07 00:57:37;;;;;;;2.25;1.75;;;19.40;99.90;;;;;;1042955;28;20024;-68
2022/06/07 00:58:07;;;;;;;3.92;2.53;;;19.40;99.90;;;;;;1042633;28;20071;-68
2022/06/07 00:58:39;;;;;;;1.63;1.50;;;19.40;99.90;;;;;;1043133;28;20483;-68
2022/06/07 00:59:09;;;;;;;2.63;1.90;;;19.40;99.90;;;;;;1042096;28;20567;-68
2022/06/07 00:59:40;;;;;;;4.17;2.63;;;19.40;99.90;;;;;;1038574;28;20681;-68
2022/06/07 01:00:14;;;;;;;2.50;1.73;;;19.40;99.90;;;;;;1038137;28;20013;-67
2022/06/07 01:00:45;;;;;;;2.75;2.20;;;19.40;99.90;;;;;;1038784;28;20083;-68
2022/06/07 01:01:17;;;;;;;2.33;1.58;;;19.40;99.90;;;;;;1042497;28;20075;-67
2022/06/07 01:01:48;;;;;;;1.70;1.20;;;19.40;99.90;;;;;;1042818;28;20024;-68
2022/06/07 01:02:19;;;;;;;2.03;1.57;;;19.40;99.90;;;;;;1042937;28;20221;-68
2022/06/07 01:02:51;;;;;;;1.40;1.15;;;19.40;99.90;;;;;;1042937;28;20025;-68
2022/06/07 01:03:22;;;;;;;1.77;1.63;;;19.40;99.90;;;;;;1042607;28;20100;-68
2022/06/07 01:03:53;;;;;;;2.60;2.22;;;19.40;99.90;;;;;;1043098;28;20025;-67
2022/06/07 01:04:24;;;;;;;1.83;1.53;;;19.40;99.90;;;;;;1042644;28;20064;-66
2022/06/07 01:04:54;;;;;;;2.37;1.83;;;19.40;99.90;;;;;;1043030;28;20028;-67
2022/06/07 01:05:25;;;;;;;3.50;2.90;;;19.40;99.90;;;;;;1042734;28;20533;-66
2022/06/07 01:10:43;;;;;;;3.47;3.17;;;19.40;99.90;;;;;;1042424;28;20025;-67
2022/06/07 01:10:55;;;;;;;2.63;1.98;;;19.40;99.90;;;;;;1038767;28;20028;-67
2022/06/07 01:11:26;;;;;;;3.30;3.00;;;19.50;99.90;;;;;;1042965;28;20476;-67
2022/06/07 01:11:56;;;;;;;2.17;1.97;;;19.50;99.90;;;;;;1042856;28;20449;-67
2022/06/07 01:12:28;;;;;;;3.50;3.20;;;19.40;99.90;;;;;;1042832;28;20468;-68
2022/06/07 01:12:58;;;;;;;3.50;3.17;;;19.50;99.90;;;;;;1041538;28;20019;-67
2022/06/07 01:13:32;;;;;;;3.50;2.53;;;19.40;99.90;;;;;;1038867;28;20052;-67
2022/06/07 01:14:02;;;;;;;2.03;1.60;;;19.40;99.90;;;;;;1038317;28;20386;-67
2022/06/07 01:14:33;;;;;;;1.37;1.23;;;19.40;99.90;;;;;;1040859;28;20029;-67
2022/06/07 01:15:05;;;;;;;3.53;3.10;;;19.40;99.90;;;;;;1038077;28;20393;-68
2022/06/07 01:15:35;;;;;;;2.58;2.30;;;19.40;99.90;;;;;;1038597;28;20040;-67
2022/06/07 01:16:08;;;;;;;2.00;1.80;;;19.40;99.90;;;;;;1042249;28;20020;-67
2022/06/07 01:16:38;;;;;;;1.70;1.45;;;19.40;99.90;;;;;;1042585;28;20247;-68
2022/06/07 01:17:09;;;;;;;2.53;2.10;;;19.40;99.90;;;;;;1038723;28;20067;-67
2022/06/07 01:17:39;;;;;;;3.60;1.97;;;19.40;99.90;;;;;;1042492;28;20017;-67
2022/06/07 01:18:10;;;;;;;3.27;2.97;;;19.50;99.90;;;;;;1042434;28;20027;-67
2022/06/07 01:18:40;;;;;;;3.10;2.80;;;19.50;99.90;;;;;;1042603;28;20040;-67
2022/06/07 01:19:11;;;;;;;1.93;1.60;;;19.40;99.90;;;;;;1042743;28;20035;-68
2022/06/07 01:19:42;;;;;;;2.90;2.30;;;19.50;99.90;;;;;;1042968;28;20124;-69
2022/06/07 01:20:12;;;;;;;3.27;2.57;;;19.50;99.90;;;;;;1042789;28;20025;-69
2022/06/07 01:20:43;;;;;;;2.90;2.53;;;19.50;99.90;;;;;;1043021;28;20471;-67
2022/06/07 01:21:19;;;;;;;2.80;1.60;;;19.50;99.90;;;;;;1042615;28;20021;-68
2022/06/07 01:21:50;;;;;;;3.08;2.78;;;19.50;99.90;;;;;;1042355;28;20017;-67
2022/06/07 01:22:21;;;;;;;2.73;2.53;;;19.50;99.90;;;;;;1042504;28;20013;-68
2022/06/07 01:22:51;;;;;;;2.67;2.45;;;19.50;99.90;;;;;;1042283;28;20492;-66
2022/06/07 01:23:22;;;;;;;4.47;3.30;;;19.50;99.90;;;;;;1042529;28;20496;-68
2022/06/07 01:23:52;;;;;;;3.93;2.37;;;19.50;99.90;;;;;;1043019;28;20384;-68
2022/06/07 01:24:23;;;;;;;1.63;1.40;;;19.50;99.90;;;;;;1042582;28;20036;-67
2022/06/07 01:24:54;;;;;;;1.50;1.37;;;19.50;99.90;;;;;;1042819;28;20025;-68
2022/06/07 01:25:25;;;;;;;2.33;1.40;;;19.50;99.90;;;;;;1038693;28;20501;-67
2022/06/07 01:26:00;;;;;;;2.20;1.90;;;19.50;99.90;;;;;;1038773;28;20018;-68
2022/06/07 01:26:31;;;;;;;3.97;3.13;;;19.50;99.90;;;;;;1042524;28;20083;-68
2022/06/07 01:27:03;;;;;;;1.38;1.27;;;19.50;99.90;;;;;;1042908;28;20096;-68
2022/06/07 01:27:33;;;;;;;3.75;3.33;;;19.60;99.90;;;;;;1042911;28;20028;-68
2022/06/07 01:28:04;;;;;;;3.60;3.20;;;19.50;99.90;;;;;;1042903;28;20155;-67
2022/06/07 01:28:35;;;;;;;3.93;3.10;;;19.50;99.90;;;;;;1042694;28;20021;-67
2022/06/07 01:29:06;;;;;;;1.20;1.10;;;19.50;99.90;;;;;;1043008;28;20021;-67
2022/06/07 01:29:37;;;;;;;3.65;2.35;;;19.50;99.90;;;;;;1042503;28;20017;-68
2022/06/07 01:30:08;;;;;;;4.80;3.42;;;19.50;99.90;;;;;;1042286;28;20155;-69
2022/06/07 01:30:39;;;;;;;3.05;2.22;;;19.50;99.90;;;;;;1042359;28;20036;-67
2022/06/07 01:31:09;;;;;;;5.40;4.03;;;19.50;99.90;;;;;;1042534;28;20095;-68
2022/06/07 01:31:41;;;;;;;4.13;3.20;;;19.50;99.90;;;;;;1042074;28;20044;-68
2022/06/07 01:32:12;;;;;;;2.85;2.58;;;19.50;99.90;;;;;;1042614;28;20024;-67
2022/06/07 01:32:42;;;;;;;3.40;2.08;;;19.50;99.90;;;;;;1042211;28;20532;-67
2022/06/07 01:33:13;;;;;;;3.80;2.77;;;19.50;99.90;;;;;;1042662;28;20440;-67
2022/06/07 01:33:45;;;;;;;3.63;2.80;;;19.50;99.90;;;;;;1042565;28;20017;-67
2022/06/07 01:34:16;;;;;;;2.95;2.05;;;19.50;99.90;;;;;;1043066;28;20048;-68
2022/06/07 01:34:47;;;;;;;4.15;2.88;;;19.50;99.90;;;;;;1042544;28;20017;-68
2022/06/07 01:35:17;;;;;;;1.63;1.52;;;19.50;99.90;;;;;;1042977;28;20063;-67
2022/06/07 01:35:58;;;;;;;1.73;1.63;;;19.50;99.90;;;;;;1042092;28;20032;-67
2022/06/07 01:36:29;;;;;;;2.47;1.85;;;19.50;99.90;;;;;;1042433;28;20018;-67
2022/06/07 01:37:00;;;;;;;4.30;3.20;;;19.50;99.90;;;;;;1040638;28;20028;-68
2022/06/07 01:37:31;;;;;;;1.77;1.67;;;19.50;99.90;;;;;;1038447;28;20024;-67
2022/06/07 01:38:02;;;;;;;2.20;1.97;;;19.50;99.90;;;;;;1038477;28;20020;-68
2022/06/07 01:38:37;;;;;;;5.13;4.37;;;19.50;99.90;;;;;;1038776;28;20020;-67
2022/06/07 01:41:55;;;;;;;3.25;2.28;;;19.50;99.90;;;;;;1039021;28;20456;-68
2022/06/07 01:42:26;;;;;;;5.25;3.97;;;19.40;99.90;;;;;;1042627;28;20631;-68
2022/06/07 01:42:56;;;;;;;3.80;2.92;;;19.50;99.90;;;;;;1042149;28;20456;-68
2022/06/07 01:43:27;;;;;;;3.70;3.37;;;19.50;99.90;;;;;;1042746;28;20033;-68
2022/06/07 01:43:59;;;;;;;2.30;2.10;;;19.40;99.90;;;;;;1041403;28;20182;-67
2022/06/07 01:44:35;;;;;;;2.30;1.95;;;19.50;99.90;;;;;;1038637;28;20582;-67
2022/06/07 01:45:06;;;;;;;3.65;2.83;;;19.50;99.90;;;;;;1038675;28;20053;-67
2022/06/07 01:45:36;;;;;;;5.45;3.55;;;19.50;99.90;;;;;;1040869;28;20021;-67
2022/06/07 01:46:07;;;;;;;4.77;4.30;;;19.50;99.90;;;;;;1042931;28;20087;-67
2022/06/07 01:46:37;;;;;;;3.20;2.90;;;19.40;99.90;;;;;;1042762;28;20020;-67
2022/06/07 01:47:12;;;;;;;4.47;4.07;;;19.40;99.90;;;;;;1042715;28;20436;-67
2022/06/07 01:47:42;;;;;;;5.07;3.65;;;19.40;99.90;;;;;;1042751;28;20630;-67
2022/06/07 01:48:13;;;;;;;4.03;3.60;;;19.40;99.90;;;;;;1042834;28;20024;-66
2022/06/07 01:48:46;;;;;;;1.93;1.80;;;19.40;99.90;;;;;;1042806;28;20025;-66
2022/06/07 01:49:17;;;;;;;3.53;3.22;;;19.40;99.90;;;;;;1042872;28;20467;-67
2022/06/07 01:49:48;;;;;;;3.08;2.75;;;19.40;99.90;;;;;;1042693;28;20040;-66
2022/06/07 01:50:19;;;;;;;2.27;2.03;;;19.40;99.90;;;;;;1041829;28;20037;-67
2022/06/07 01:50:51;;;;;;;4.77;4.07;;;19.40;99.90;;;;;;1041284;28;20024;-67
2022/06/07 01:51:22;;;;;;;4.32;3.92;;;19.40;99.90;;;;;;1042647;28;20021;-68
2022/06/07 01:51:53;;;;;;;2.67;2.13;;;19.40;99.90;;;;;;1042400;28;20017;-66
2022/06/07 01:52:27;;;;;;;2.20;2.00;;;19.40;99.90;;;;;;1042875;28;20028;-66
2022/06/07 01:52:58;;;;;;;3.13;2.83;;;19.40;99.90;;;;;;1042779;28;20075;-68
2022/06/07 01:53:28;;;;;;;5.17;4.37;;;19.40;99.90;;;;;;1042887;28;20082;-68
2022/06/07 01:53:59;;;;;;;4.23;3.73;;;19.40;99.90;;;;;;1042730;28;20578;-67
2022/06/07 01:54:29;;;;;;;3.87;3.47;;;19.40;99.90;;;;;;1041202;28;20021;-67
2022/06/07 01:55:00;;;;;;;3.77;3.30;;;19.40;99.90;;;;;;1038702;28;20828;-67
2022/06/07 01:55:31;;;;;;;4.07;2.23;;;19.40;99.90;;;;;;1038798;28;20053;-67
2022/06/07 01:56:11;;;;;;;4.10;3.00;;;19.40;99.90;;;;;;1042396;28;20439;-67
2022/06/07 01:56:42;;;;;;;4.22;3.10;;;19.40;99.90;;;;;;1042799;28;20025;-67
2022/06/07 01:57:13;;;;;;;3.93;2.80;;;19.40;99.90;;;;;;1042999;28;20046;-67
2022/06/07 01:57:44;;;;;;;5.55;3.80;;;19.40;99.90;;;;;;1042463;28;20048;-67
2022/06/07 01:58:16;;;;;;;3.20;2.80;;;19.40;99.90;;;;;;1042970;28;20025;-67
2022/06/07 01:58:46;;;;;;;2.25;1.88;;;19.40;99.90;;;;;;1042572;28;20036;-67
2022/06/07 01:59:18;;;;;;;5.17;4.67;;;19.40;99.90;;;;;;1042906;28;20028;-67
2022/06/07 01:59:49;;;;;;;5.72;3.83;;;19.40;99.90;;;;;;1042719;28;20021;-67
2022/06/07 02:00:20;;;;;;;3.05;2.72;;;19.40;99.90;;;;;;1042808;28;20059;-67
2022/06/07 02:00:53;;;;;;;4.80;3.57;;;19.50;99.90;;;;;;1042604;28;20013;-66
2022/06/07 02:01:24;;;;;;;3.80;3.30;;;19.50;99.90;;;;;;1042810;28;20044;-67
2022/06/07 02:01:54;;;;;;;4.13;3.73;;;19.40;99.90;;;;;;1042729;28;20021;-67
2022/06/07 02:02:27;;;;;;;4.13;3.35;;;19.40;99.90;;;;;;1042989;28;20511;-67
2022/06/07 02:02:58;;;;;;;3.25;2.60;;;19.50;99.90;;;;;;1043449;28;20017;-67
2022/06/07 02:03:28;;;;;;;3.50;3.10;;;19.40;99.90;;;;;;1043609;28;20035;-67
2022/06/07 02:03:59;;;;;;;4.73;4.30;;;19.50;99.90;;;;;;1043561;28;20040;-67
2022/06/07 02:04:29;;;;;;;4.33;3.80;;;19.50;99.90;;;;;;1043266;28;20043;-66
2022/06/07 02:05:00;;;;;;;5.73;3.97;;;19.50;99.90;;;;;;1043598;28;20137;-67
2022/06/07 02:05:30;;;;;;;3.70;3.07;;;19.50;99.90;;;;;;1043554;28;20464;-67
2022/06/07 02:06:04;;;;;;;2.87;1.80;;;19.40;99.90;;;;;;1043301;28;20025;-67
2022/06/07 02:06:35;;;;;;;2.97;2.13;;;19.40;99.90;;;;;;1043502;28;20021;-66
2022/06/07 02:07:07;;;;;;;2.20;1.93;;;19.40;99.90;;;;;;1043593;28;20049;-68
2022/06/07 02:07:38;;;;;;;4.75;4.30;;;19.40;99.90;;;;;;1043399;28;20017;-66
2022/06/07 02:08:08;;;;;;;2.10;1.90;;;19.40;99.90;;;;;;1043642;28;20036;-66
2022/06/07 02:08:41;;;;;;;3.30;2.90;;;19.50;99.90;;;;;;1043430;28;20420;-68
2022/06/07 02:09:11;;;;;;;4.07;3.33;;;19.40;99.90;;;;;;1042784;28;20026;-68
2022/06/07 02:09:42;;;;;;;3.00;1.97;;;19.40;99.90;;;;;;1042541;28;20345;-67
2022/06/07 02:10:13;;;;;;;3.80;3.00;;;19.40;99.90;;;;;;1039098;28;20037;-67
2022/06/07 02:10:43;;;;;;;3.33;2.30;;;19.50;99.90;;;;;;1038836;28;20025;-68
2022/06/07 02:11:20;;;;;;;3.80;2.70;;;19.50;99.90;;;;;;1042250;28;20048;-68
2022/06/07 02:11:50;;;;;;;4.18;3.72;;;19.50;99.90;;;;;;1043012;28;20067;-67
2022/06/07 02:12:21;;;;;;;4.63;3.53;;;19.50;99.90;;;;;;1041718;28;20048;-67
2022/06/07 02:12:52;;;;;;;2.53;2.33;;;19.40;99.90;;;;;;1041450;28;20045;-67
2022/06/07 02:13:23;;;;;;;5.43;4.77;;;19.40;99.90;;;;;;1043723;28;20384;-67
2022/06/07 02:13:54;;;;;;;4.25;3.85;;;19.40;99.90;;;;;;1043353;28;20017;-67
2022/06/07 02:14:25;;;;;;;5.85;3.67;;;19.50;99.90;;;;;;1043555;28;20066;-67
2022/06/07 02:14:56;;;;;;;2.45;2.25;;;19.40;99.90;;;;;;1043309;28;20025;-68
2022/06/07 02:15:26;;;;;;;3.17;2.83;;;19.40;99.90;;;;;;1043680;28;20025;-68
2022/06/07 02:15:57;;;;;;;4.00;3.60;;;19.40;99.90;;;;;;1043222;28;20080;-68
2022/06/07 02:16:27;;;;;;;1.93;1.73;;;19.40;99.90;;;;;;1043722;28;20028;-67
2022/06/07 02:16:58;;;;;;;4.17;3.77;;;19.40;99.90;;;;;;1043267;28;20017;-68
2022/06/07 02:17:28;;;;;;;2.63;2.40;;;19.40;99.90;;;;;;1043352;28;20496;-67
2022/06/07 02:17:59;;;;;;;4.10;2.60;;;19.40;99.90;;;;;;1042789;28;20119;-67
2022/06/07 02:18:30;;;;;;;2.30;2.00;;;19.40;99.90;;;;;;1043377;28;20078;-67
2022/06/07 02:19:01;;;;;;;3.87;2.90;;;19.40;99.90;;;;;;1042987;28;20331;-67
2022/06/07 02:19:32;;;;;;;3.13;2.13;;;19.40;99.90;;;;;;1043333;28;20506;-67
2022/06/07 02:20:03;;;;;;;3.33;2.63;;;19.40;99.90;;;;;;1043409;28;20501;-68
2022/06/07 02:20:33;;;;;;;2.50;2.13;;;19.40;99.90;;;;;;1043687;28;20164;-68
2022/06/07 02:21:05;;;;;;;3.90;3.17;;;19.40;99.90;;;;;;1043195;28;20281;-68
2022/06/07 02:21:38;;;;;;;5.10;3.97;;;19.40;99.90;;;;;;1043765;28;20019;-68
2022/06/07 02:22:09;;;;;;;4.47;4.07;;;19.40;99.90;;;;;;1043258;28;20071;-67
2022/06/07 02:22:39;;;;;;;2.53;2.23;;;19.40;99.90;;;;;;1040310;28;20036;-68
2022/06/07 02:23:10;;;;;;;4.33;3.90;;;19.40;99.90;;;;;;1042397;28;20711;-68
2022/06/07 02:23:41;;;;;;;4.87;3.57;;;19.40;99.90;;;;;;1043849;28;20076;-67
2022/06/07 02:24:11;;;;;;;3.80;2.85;;;19.40;99.90;;;;;;1043182;28;20023;-67
2022/06/07 02:24:42;;;;;;;3.30;2.80;;;19.40;99.90;;;;;;1043650;28;20025;-68
2022/06/07 02:25:12;;;;;;;5.63;4.37;;;19.40;99.90;;;;;;1040746;28;20024;-68
2022/06/07 02:25:48;;;;;;;4.40;4.00;;;19.40;99.90;;;;;;1039498;28;20017;-68
2022/06/07 02:26:30;;;;;;;3.38;3.08;;;19.40;99.90;;;;;;1040523;28;20360;-68
2022/06/07 02:27:05;;;;;;;4.85;4.07;;;19.40;99.90;;;;;;1043485;28;20028;-67
2022/06/07 02:27:36;;;;;;;4.07;3.70;;;19.30;99.90;;;;;;1043453;28;20021;-68
2022/06/07 02:28:10;;;;;;;4.03;3.63;;;19.40;99.90;;;;;;1043348;28;20017;-66
2022/06/07 02:28:44;;;;;;;4.30;3.67;;;19.40;99.90;;;;;;1043445;28;20017;-68
2022/06/07 02:29:21;;;;;;;5.20;4.70;;;19.40;99.90;;;;;;1043342;28;20017;-67
2022/06/07 02:29:54;;;;;;;3.25;2.25;;;19.30;99.90;;;;;;1041515;28;20021;-68
2022/06/07 02:30:24;;;;;;;2.97;2.13;;;19.40;99.90;;;;;;1039127;28;20013;-68
2022/06/07 02:30:57;;;;;;;5.97;4.50;;;19.30;99.90;;;;;;1039294;28;20096;-67
2022/06/07 02:31:32;;;;;;;4.05;3.65;;;19.30;99.90;;;;;;1039271;28;20017;-67
2022/06/07 02:32:08;;;;;;;2.80;2.50;;;19.30;99.90;;;;;;1039300;28;20009;-67
2022/06/07 02:32:39;;;;;;;2.47;2.28;;;19.30;99.90;;;;;;1039171;28;20452;-67
2022/06/07 02:33:11;;;;;;;3.42;2.80;;;19.30;99.90;;;;;;1039433;28;20009;-67
2022/06/07 02:33:42;;;;;;;3.30;2.45;;;19.30;99.90;;;;;;1040827;28;20017;-67
2022/06/07 02:34:15;;;;;;;3.53;3.15;;;19.30;99.90;;;;;;1041096;28;20013;-67
2022/06/07 02:34:48;;;;;;;4.20;3.78;;;19.30;99.90;;;;;;1038943;28;20025;-67
2022/06/07 02:35:19;;;;;;;3.72;3.13;;;19.30;99.90;;;;;;1039519;28;20063;-67
2022/06/07 02:35:50;;;;;;;2.93;2.63;;;19.40;99.90;;;;;;1040329;28;20086;-67
2022/06/07 02:36:20;;;;;;;4.37;3.97;;;19.30;99.90;;;;;;1043559;28;20013;-67
2022/06/07 02:36:55;;;;;;;2.93;2.53;;;19.40;99.90;;;;;;1042785;28;20531;-67
2022/06/07 02:37:27;;;;;;;3.63;2.63;;;19.40;99.90;;;;;;1043127;28;20137;-67
2022/06/07 02:37:58;;;;;;;4.63;3.95;;;19.30;99.90;;;;;;1038645;28;20006;-67
2022/06/07 02:38:28;;;;;;;3.60;2.90;;;19.40;99.90;;;;;;1037607;28;20030;-68
2022/06/07 02:39:01;;;;;;;4.67;3.43;;;19.40;99.90;;;;;;1038607;28;20017;-66
2022/06/07 02:39:33;;;;;;;4.78;4.28;;;19.40;99.90;;;;;;1039298;28;20016;-67
2022/06/07 02:40:05;;;;;;;3.08;2.70;;;19.40;99.90;;;;;;1040295;28;20006;-67
2022/06/07 02:40:36;;;;;;;4.03;3.63;;;19.40;99.90;;;;;;1043284;28;20016;-67
2022/06/07 02:41:10;;;;;;;3.70;3.17;;;19.40;99.90;;;;;;1042958;28;20013;-67
2022/06/07 02:41:42;;;;;;;2.92;2.33;;;19.40;99.90;;;;;;1040106;28;20477;-67
2022/06/07 02:42:16;;;;;;;3.75;2.90;;;19.40;99.90;;;;;;1043234;28;20478;-67
2022/06/07 02:42:46;;;;;;;4.07;3.28;;;19.40;99.90;;;;;;1042726;28;20013;-67
2022/06/07 02:43:18;;;;;;;3.73;3.37;;;19.40;99.90;;;;;;1039023;28;20077;-67
2022/06/07 02:43:49;;;;;;;2.80;2.25;;;19.40;99.90;;;;;;1043380;28;20022;-67
2022/06/07 02:44:20;;;;;;;4.00;3.60;;;19.40;99.90;;;;;;1043307;28;20016;-66
2022/06/07 02:44:50;;;;;;;3.38;3.08;;;19.40;99.90;;;;;;1043670;28;20395;-67
2022/06/07 02:45:21;;;;;;;4.73;4.00;;;19.40;99.90;;;;;;1043050;28;20801;-67
2022/06/07 02:45:51;;;;;;;3.17;2.50;;;19.40;99.90;;;;;;1043414;28;20044;-68
2022/06/07 02:46:22;;;;;;;4.40;4.00;;;19.40;99.90;;;;;;1043269;28;20009;-68
2022/06/07 02:46:52;;;;;;;4.27;3.67;;;19.40;99.90;;;;;;1040249;28;20017;-68
2022/06/07 02:47:23;;;;;;;3.27;2.30;;;19.40;99.90;;;;;;1039098;28;20029;-68
2022/06/07 02:47:54;;;;;;;3.95;3.17;;;19.40;99.90;;;;;;1039312;28;20059;-69
2022/06/07 02:48:25;;;;;;;3.90;2.90;;;19.40;99.90;;;;;;1038980;28;20017;-68
2022/06/07 02:48:55;;;;;;;3.57;2.70;;;19.40;99.90;;;;;;1043391;28;20036;-68
2022/06/07 02:49:26;;;;;;;4.00;2.90;;;19.40;99.90;;;;;;1043179;28;20286;-68
2022/06/07 02:49:57;;;;;;;4.40;4.00;;;19.40;99.90;;;;;;1043393;28;20146;-68
2022/06/07 02:50:27;;;;;;;4.85;4.43;;;19.40;99.90;;;;;;1043143;28;20032;-68
2022/06/07 02:50:58;;;;;;;4.53;3.50;;;19.40;99.90;;;;;;1043456;28;20021;-68
2022/06/07 02:51:29;;;;;;;5.53;4.18;;;19.40;99.90;;;;;;1043057;28;20052;-68
2022/06/07 02:51:59;;;;;;;4.90;3.23;;;19.40;99.90;;;;;;1043260;28;20020;-68